Time;durP1;ratioP1;P1;durP2;ratioP2;P2;SDS_P1;SDS_P2;PMS_P1;PMS_P2;Temp;Humidity;BMP_temperature;BMP_pressure;BME280_temperature;BME280_humidity;BME280_pressure;Samples;Min_cycle;Max_cycle;Signal;HPM_P1;HPM_P2
2023/10/22 00:01:48;;;;;;;23.08;20.77;;;12.20;99.90;;;;;;6229682;22;20008;-87
2023/10/22 00:04:14;;;;;;;20.85;19.20;;;13.00;99.90;;;;;;6229228;22;20020;-88
2023/10/22 00:06:40;;;;;;;20.60;17.80;;;12.20;99.90;;;;;;6229453;22;20047;-87
2023/10/22 00:09:05;;;;;;;20.05;18.63;;;12.20;99.90;;;;;;6229205;22;20048;-87
2023/10/22 00:11:31;;;;;;;24.67;22.58;;;12.20;99.90;;;;;;6229952;22;20012;-89
2023/10/22 00:13:57;;;;;;;18.65;17.25;;;12.20;99.90;;;;;;6229153;22;20016;-88
2023/10/22 00:16:22;;;;;;;25.60;23.60;;;12.60;99.90;;;;;;6229282;22;20092;-87
2023/10/22 00:18:48;;;;;;;14.18;12.88;;;12.90;99.90;;;;;;6228716;22;20033;-88
2023/10/22 00:21:14;;;;;;;19.15;17.70;;;12.20;99.90;;;;;;6229101;22;20069;-87
2023/10/22 00:23:39;;;;;;;28.83;26.63;;;12.30;99.90;;;;;;6254787;22;20011;-89
2023/10/22 00:26:05;;;;;;;19.50;17.85;;;13.20;99.90;;;;;;6228772;22;20008;-87
2023/10/22 00:28:31;;;;;;;16.25;14.75;;;12.60;99.90;;;;;;6227786;22;20008;-88
2023/10/22 00:30:57;;;;;;;21.15;19.48;;;12.30;99.90;;;;;;6227484;22;20018;-87
2023/10/22 00:33:23;;;;;;;19.83;18.38;;;12.50;99.90;;;;;;6227560;22;20015;-88
2023/10/22 00:35:56;;;;;;;12.88;11.50;;;12.90;99.90;;;;;;6227823;22;20039;-87
2023/10/22 00:38:23;;;;;;;21.00;19.33;;;12.30;99.90;;;;;;6227921;22;20008;-88
2023/10/22 00:40:48;;;;;;;28.13;26.17;;;12.30;99.90;;;;;;6228450;22;20022;-87
2023/10/22 00:43:14;;;;;;;19.63;17.92;;;13.10;99.90;;;;;;6227888;22;20007;-88
2023/10/22 00:45:39;;;;;;;23.67;21.42;;;12.30;99.90;;;;;;6228141;22;20061;-88
2023/10/22 00:48:06;;;;;;;27.10;24.70;;;13.00;99.90;;;;;;6227670;22;20046;-88
2023/10/22 00:50:32;;;;;;;23.95;22.15;;;12.30;99.90;;;;;;6227634;22;20015;-87
2023/10/22 00:52:58;;;;;;;24.65;22.85;;;12.50;99.90;;;;;;6227541;22;20110;-87
2023/10/22 00:55:24;;;;;;;18.92;17.38;;;12.30;99.90;;;;;;6228420;22;20012;-88
2023/10/22 00:57:51;;;;;;;22.83;21.02;;;12.50;99.90;;;;;;6227855;22;20058;-88
2023/10/22 01:00:18;;;;;;;23.88;21.92;;;13.30;99.90;;;;;;6227642;22;20011;-88
2023/10/22 01:02:44;;;;;;;21.50;19.85;;;12.10;99.90;;;;;;6228972;22;20012;-87
2023/10/22 01:05:09;;;;;;;16.63;15.27;;;13.00;99.90;;;;;;6253582;22;20030;-88
2023/10/22 01:07:35;;;;;;;15.70;14.50;;;12.40;99.90;;;;;;6228571;22;20012;-89
2023/10/22 01:10:02;;;;;;;20.27;18.65;;;12.90;99.90;;;;;;6228148;22;20564;-88
2023/10/22 01:12:34;;;;;;;20.85;18.92;;;13.20;99.90;;;;;;6227559;22;20099;-87
2023/10/22 01:15:01;;;;;;;23.77;22.08;;;12.50;99.90;;;;;;6228816;22;20030;-88
2023/10/22 01:17:27;;;;;;;24.10;22.30;;;12.50;99.90;;;;;;6227687;22;20018;-87
2023/10/22 01:19:53;;;;;;;35.95;33.20;;;12.50;99.90;;;;;;6227468;22;20008;-88
2023/10/22 01:22:18;;;;;;;21.65;20.15;;;12.50;99.90;;;;;;6227536;22;20004;-88
2023/10/22 01:24:44;;;;;;;22.05;20.60;;;13.00;99.90;;;;;;6228228;22;20012;-88
2023/10/22 01:27:10;;;;;;;17.38;16.15;;;12.60;99.90;;;;;;6228446;22;20011;-88
2023/10/22 01:29:35;;;;;;;28.33;26.33;;;12.80;99.90;;;;;;6253669;22;20011;-87
2023/10/22 01:32:01;;;;;;;17.50;16.10;;;12.50;99.90;;;;;;6228334;22;20012;-89
2023/10/22 01:34:27;;;;;;;14.63;13.48;;;12.50;99.90;;;;;;6253956;22;20008;-86
2023/10/22 01:36:52;;;;;;;18.73;17.20;;;12.50;99.90;;;;;;6254154;22;20015;-87
2023/10/22 01:39:18;;;;;;;18.45;15.13;;;13.10;99.90;;;;;;6230635;22;20030;-87
2023/10/22 01:41:44;;;;;;;14.55;13.20;;;12.30;99.90;;;;;;6228076;22;20012;-88
2023/10/22 01:44:10;;;;;;;12.70;11.70;;;12.30;99.90;;;;;;6228891;22;20081;-89
2023/10/22 01:46:35;;;;;;;13.57;12.43;;;13.10;99.90;;;;;;6254165;22;20038;-89
2023/10/22 01:49:01;;;;;;;14.80;13.43;;;12.30;99.90;;;;;;6230748;22;20012;-87
2023/10/22 01:51:27;;;;;;;21.83;19.85;;;12.80;99.90;;;;;;6229534;22;20039;-88
2023/10/22 01:53:53;;;;;;;15.73;14.30;;;12.70;99.90;;;;;;6254869;22;20016;-89
2023/10/22 01:56:18;;;;;;;16.35;14.73;;;12.10;99.90;;;;;;6229825;22;20015;-87
2023/10/22 01:58:47;;;;;;;16.70;15.32;;;12.00;99.90;;;;;;6228984;22;20065;-88
2023/10/22 02:01:13;;;;;;;13.55;10.90;;;12.30;99.90;;;;;;6229918;22;20071;-88
2023/10/22 02:03:44;;;;;;;13.48;12.25;;;12.40;99.90;;;;;;6228946;22;20051;-88
2023/10/22 02:06:14;;;;;;;14.15;12.60;;;12.50;99.90;;;;;;6225922;22;20536;-88
2023/10/22 02:08:41;;;;;;;14.77;13.65;;;12.50;99.90;;;;;;6224725;22;20342;-89
2023/10/22 02:11:07;;;;;;;13.85;12.75;;;11.90;99.90;;;;;;6225108;22;20012;-89
2023/10/22 02:13:33;;;;;;;13.90;10.73;;;12.50;99.90;;;;;;6225024;22;20481;-89
2023/10/22 02:15:59;;;;;;;14.63;12.90;;;11.70;99.90;;;;;;6224947;22;20073;-89
2023/10/22 02:18:24;;;;;;;15.77;14.45;;;12.50;99.90;;;;;;6225247;22;20019;-87
2023/10/22 02:21:08;;;;;;;14.15;10.45;;;11.80;99.90;;;;;;6225300;22;20012;-89
2023/10/22 02:23:34;;;;;;;12.77;11.50;;;11.80;99.90;;;;;;6226329;22;20012;-90
2023/10/22 02:26:00;;;;;;;12.38;10.95;;;12.40;99.90;;;;;;6225417;22;20011;-89
2023/10/22 02:28:26;;;;;;;14.70;13.10;;;12.60;99.90;;;;;;6225274;22;20046;-89
2023/10/22 02:30:51;;;;;;;12.73;11.50;;;11.70;99.90;;;;;;6224725;22;20015;-88
2023/10/22 02:33:17;;;;;;;15.50;13.98;;;11.70;99.90;;;;;;6224760;22;20011;-88
2023/10/22 02:35:44;;;;;;;14.73;13.27;;;11.70;99.90;;;;;;6224878;22;20086;-88
2023/10/22 02:38:13;;;;;;;21.10;19.52;;;11.90;99.90;;;;;;6224905;22;20015;-89
2023/10/22 02:40:39;;;;;;;21.73;19.80;;;12.40;99.90;;;;;;6225241;22;20035;-89
2023/10/22 02:43:05;;;;;;;18.92;17.17;;;11.90;99.90;;;;;;6224774;22;20011;-89
2023/10/22 02:45:31;;;;;;;18.40;16.40;;;12.10;99.90;;;;;;6225335;22;20429;-90
2023/10/22 02:48:00;;;;;;;21.45;19.45;;;12.50;99.90;;;;;;6223889;22;20039;-88
2023/10/22 02:50:26;;;;;;;33.38;31.25;;;11.60;99.90;;;;;;6224280;22;20090;-88
2023/10/22 02:52:53;;;;;;;27.73;26.05;;;11.70;99.90;;;;;;6225023;22;20012;-87
2023/10/22 02:55:19;;;;;;;22.80;19.95;;;11.60;99.90;;;;;;6224460;22;20069;-87
2023/10/22 02:57:45;;;;;;;22.90;21.20;;;12.10;99.90;;;;;;6249062;22;20496;-88
2023/10/22 03:00:12;;;;;;;20.95;19.08;;;12.40;99.90;;;;;;6224125;22;20023;-88
2023/10/22 03:02:39;;;;;;;20.23;18.52;;;11.60;99.90;;;;;;6223528;22;20003;-88
2023/10/22 03:05:06;;;;;;;18.13;16.27;;;11.60;99.90;;;;;;6224136;22;20105;-88
2023/10/22 03:07:32;;;;;;;18.88;17.30;;;11.60;99.90;;;;;;6224870;22;20019;-87
2023/10/22 03:09:58;;;;;;;17.05;15.35;;;12.00;99.90;;;;;;6224857;22;20012;-89
2023/10/22 03:12:24;;;;;;;18.40;16.88;;;11.60;99.90;;;;;;6224982;22;20011;-89
2023/10/22 03:14:53;;;;;;;19.58;17.98;;;11.70;99.90;;;;;;6249645;22;20081;-88
2023/10/22 03:17:19;;;;;;;15.65;14.25;;;11.60;99.90;;;;;;6223454;22;20019;-88
2023/10/22 03:19:45;;;;;;;16.85;15.48;;;11.70;99.90;;;;;;6224883;22;20478;-89
2023/10/22 03:22:11;;;;;;;15.60;14.43;;;11.60;99.90;;;;;;6224672;22;20057;-89
2023/10/22 03:24:37;;;;;;;13.45;12.25;;;11.60;99.90;;;;;;6223401;22;20394;-89
2023/10/22 03:27:05;;;;;;;17.52;15.73;;;11.90;99.90;;;;;;6224076;22;20115;-88
2023/10/22 03:29:34;;;;;;;16.10;14.60;;;11.60;99.90;;;;;;6223956;22;20087;-88
2023/10/22 03:32:00;;;;;;;14.48;13.18;;;11.60;99.90;;;;;;6224298;22;20008;-88
2023/10/22 03:34:26;;;;;;;20.52;18.88;;;12.00;99.90;;;;;;6224388;22;20011;-88
2023/10/22 03:36:51;;;;;;;13.02;12.07;;;11.60;99.90;;;;;;6249474;22;20010;-89
2023/10/22 03:39:17;;;;;;;13.80;12.52;;;11.60;99.90;;;;;;6250273;22;20438;-89
2023/10/22 03:41:44;;;;;;;12.07;10.98;;;12.10;99.90;;;;;;6224513;22;20081;-89
2023/10/22 03:44:10;;;;;;;13.48;12.32;;;12.30;99.90;;;;;;6224581;22;20012;-89
2023/10/22 03:46:35;;;;;;;13.88;12.55;;;11.60;99.90;;;;;;6224146;22;20022;-88
2023/10/22 03:49:01;;;;;;;12.73;11.43;;;11.60;99.90;;;;;;6224926;22;20389;-89
2023/10/22 03:51:27;;;;;;;12.93;10.95;;;11.70;99.90;;;;;;6224060;22;20016;-88
2023/10/22 03:53:53;;;;;;;14.27;10.98;;;11.90;99.90;;;;;;6224919;22;20015;-88
2023/10/22 03:56:20;;;;;;;15.27;13.07;;;11.80;99.90;;;;;;6224255;22;20043;-89
2023/10/22 03:58:46;;;;;;;11.98;10.98;;;11.60;99.90;;;;;;6223816;22;20011;-88
2023/10/22 04:01:11;;;;;;;12.90;11.55;;;11.90;99.90;;;;;;6223488;22;20342;-89
2023/10/22 04:03:37;;;;;;;14.20;13.00;;;12.10;99.90;;;;;;6224451;22;20012;-89
2023/10/22 04:06:03;;;;;;;12.45;11.15;;;11.70;99.90;;;;;;6224051;22;20120;-87
2023/10/22 04:08:29;;;;;;;12.43;11.10;;;11.70;99.90;;;;;;6223893;22;20508;-87
2023/10/22 04:10:55;;;;;;;14.25;13.05;;;11.70;99.90;;;;;;6224189;22;20066;-88
2023/10/22 04:13:21;;;;;;;15.55;14.25;;;11.70;99.90;;;;;;6224246;22;20035;-88
2023/10/22 04:15:48;;;;;;;11.50;10.43;;;12.30;99.90;;;;;;6223523;22;20015;-88
2023/10/22 04:18:15;;;;;;;11.88;10.77;;;11.90;99.90;;;;;;6223901;22;20413;-88
2023/10/22 04:20:41;;;;;;;11.80;9.88;;;12.50;99.90;;;;;;6223965;22;20015;-88
2023/10/22 04:23:10;;;;;;;12.15;11.05;;;11.70;99.90;;;;;;6224416;22;20615;-89
2023/10/22 04:25:40;;;;;;;16.25;14.82;;;11.70;99.90;;;;;;6224188;22;20434;-87
2023/10/22 04:28:07;;;;;;;11.48;10.48;;;11.70;99.90;;;;;;6224513;22;20027;-88
2023/10/22 04:30:35;;;;;;;13.52;12.15;;;12.40;99.90;;;;;;6223240;22;20055;-89
2023/10/22 04:33:01;;;;;;;13.30;11.90;;;11.70;99.90;;;;;;6224125;22;20042;-89
2023/10/22 04:35:27;;;;;;;11.38;10.38;;;11.80;99.90;;;;;;6249158;22;20506;-90
2023/10/22 04:37:54;;;;;;;10.25;8.40;;;11.90;99.90;;;;;;6223387;22;20050;-88
2023/10/22 04:40:20;;;;;;;14.15;13.00;;;11.70;99.90;;;;;;6224438;22;20018;-89
2023/10/22 04:42:46;;;;;;;11.23;10.35;;;11.70;99.90;;;;;;6223452;22;20342;-88
2023/10/22 04:45:12;;;;;;;11.73;10.75;;;11.70;99.90;;;;;;6223500;22;20140;-89
2023/10/22 04:47:38;;;;;;;30.52;28.20;;;11.70;99.90;;;;;;6225162;22;20007;-89
2023/10/22 04:50:05;;;;;;;12.02;10.93;;;12.40;99.90;;;;;;6225038;22;20020;-89
2023/10/22 04:52:31;;;;;;;10.48;9.48;;;11.70;99.90;;;;;;6224054;22;20016;-88
2023/10/22 04:55:00;;;;;;;10.60;9.80;;;12.20;99.90;;;;;;6223738;22;20438;-88
2023/10/22 04:57:26;;;;;;;11.73;10.82;;;11.70;99.90;;;;;;6248692;22;20019;-88
2023/10/22 04:59:52;;;;;;;10.35;9.35;;;11.80;99.90;;;;;;6223674;22;20014;-88
2023/10/22 05:02:18;;;;;;;12.93;11.90;;;12.00;99.90;;;;;;6223609;22;20012;-88
2023/10/22 05:04:49;;;;;;;11.80;10.98;;;12.20;99.90;;;;;;6207179;23;20016;-88
2023/10/22 05:07:14;;;;;;;11.57;10.60;;;11.70;99.90;;;;;;6188743;23;20055;-89
2023/10/22 05:09:40;;;;;;;11.85;9.52;;;11.70;99.90;;;;;;6188638;23;20012;-89
2023/10/22 05:12:06;;;;;;;12.30;11.30;;;11.70;99.90;;;;;;6188845;23;20024;-89
2023/10/22 05:14:32;;;;;;;12.60;11.50;;;11.60;99.90;;;;;;6188170;23;20008;-90
2023/10/22 05:16:58;;;;;;;12.88;11.60;;;12.00;99.90;;;;;;6188561;23;20008;-89
2023/10/22 05:19:27;;;;;;;10.73;9.75;;;11.70;99.90;;;;;;6189755;23;20013;-89
2023/10/22 05:21:53;;;;;;;12.60;11.40;;;11.70;99.90;;;;;;6190518;23;20040;-88
2023/10/22 05:24:19;;;;;;;15.80;14.52;;;12.70;99.90;;;;;;6187899;23;20470;-89
2023/10/22 05:26:44;;;;;;;13.27;12.05;;;11.70;99.90;;;;;;6188426;23;20095;-89
2023/10/22 05:29:10;;;;;;;13.95;12.45;;;11.70;99.90;;;;;;6188216;23;20028;-88
2023/10/22 05:31:36;;;;;;;15.30;13.98;;;12.50;99.90;;;;;;6188091;23;20447;-87
2023/10/22 05:34:02;;;;;;;14.98;13.68;;;11.70;99.90;;;;;;6188921;23;20023;-88
2023/10/22 05:36:28;;;;;;;11.32;10.23;;;11.80;99.90;;;;;;6196047;23;20009;-88
2023/10/22 05:38:54;;;;;;;13.00;11.82;;;11.90;99.90;;;;;;6199296;23;20017;-88
2023/10/22 05:41:25;;;;;;;19.00;17.13;;;11.80;99.90;;;;;;6200432;23;20019;-88
2023/10/22 05:43:52;;;;;;;17.48;15.82;;;11.80;99.90;;;;;;6200975;23;20067;-88
2023/10/22 05:46:18;;;;;;;12.15;10.57;;;11.80;99.90;;;;;;6200761;23;20021;-88
2023/10/22 05:48:44;;;;;;;15.05;13.70;;;11.80;99.90;;;;;;6200633;23;20103;-89
2023/10/22 05:51:10;;;;;;;12.15;11.05;;;12.20;99.90;;;;;;6201519;23;20029;-89
2023/10/22 05:53:36;;;;;;;13.05;11.80;;;11.70;99.90;;;;;;6202984;23;20040;-88
2023/10/22 05:56:01;;;;;;;12.27;10.65;;;11.90;99.90;;;;;;6202666;23;20017;-88
2023/10/22 05:58:27;;;;;;;12.80;11.52;;;13.30;99.90;;;;;;6201842;23;20044;-87
2023/10/22 06:00:53;;;;;;;10.43;9.43;;;11.90;99.90;;;;;;6201120;23;20024;-89
2023/10/22 06:03:20;;;;;;;14.75;13.38;;;11.90;99.90;;;;;;6202787;23;20017;-90
2023/10/22 06:05:45;;;;;;;12.90;11.85;;;11.90;99.90;;;;;;6206719;23;20025;-88
2023/10/22 06:08:14;;;;;;;11.50;10.43;;;12.80;99.90;;;;;;6200021;23;20068;-88
2023/10/22 06:10:41;;;;;;;8.77;8.00;;;11.90;99.90;;;;;;6200104;23;20080;-89
2023/10/22 06:13:07;;;;;;;7.90;6.32;;;12.90;99.90;;;;;;6199828;23;20048;-89
2023/10/22 06:15:38;;;;;;;9.40;8.68;;;12.00;99.90;;;;;;6201967;23;20021;-87
2023/10/22 06:18:04;;;;;;;6.35;5.75;;;12.00;99.90;;;;;;6199627;23;20089;-87
2023/10/22 06:20:30;;;;;;;7.13;5.18;;;12.10;99.90;;;;;;6198594;23;20017;-85
2023/10/22 06:22:57;;;;;;;9.02;8.30;;;12.60;99.90;;;;;;6197253;23;20020;-86
2023/10/22 06:25:23;;;;;;;8.88;7.95;;;12.10;99.90;;;;;;6197432;23;20455;-87
2023/10/22 06:27:48;;;;;;;7.35;5.65;;;11.70;99.90;;;;;;6220644;23;20008;-87
2023/10/22 06:30:14;;;;;;;9.88;9.07;;;12.90;99.90;;;;;;6195578;23;20227;-86
2023/10/22 06:32:40;;;;;;;10.18;8.48;;;12.00;99.90;;;;;;6196444;23;20019;-87
2023/10/22 06:35:07;;;;;;;8.68;7.85;;;12.60;99.90;;;;;;6197213;23;20016;-87
2023/10/22 06:37:33;;;;;;;10.77;9.55;;;11.90;99.90;;;;;;6196067;23;20035;-85
2023/10/22 06:40:02;;;;;;;8.73;7.90;;;12.30;99.90;;;;;;6192351;23;20009;-85
2023/10/22 06:42:29;;;;;;;13.80;9.30;;;11.80;99.90;;;;;;6195274;23;20435;-86
2023/10/22 06:44:55;;;;;;;13.40;10.75;;;11.70;99.90;;;;;;6194004;23;20024;-86
2023/10/22 06:47:20;;;;;;;11.88;9.82;;;11.60;99.90;;;;;;6190467;23;20017;-84
2023/10/22 06:49:46;;;;;;;11.32;10.23;;;11.60;99.90;;;;;;6213703;23;20513;-84
2023/10/22 06:52:11;;;;;;;14.32;11.43;;;11.60;99.90;;;;;;6188150;23;20046;-85
2023/10/22 06:54:37;;;;;;;12.68;11.27;;;11.60;99.90;;;;;;6188077;23;20028;-83
2023/10/22 06:57:03;;;;;;;17.20;11.23;;;12.30;99.90;;;;;;6187596;23;20142;-84
2023/10/22 06:59:29;;;;;;;12.70;11.45;;;11.60;99.90;;;;;;6188473;23;20008;-84
2023/10/22 07:01:54;;;;;;;16.15;10.13;;;12.00;99.90;;;;;;6213004;23;20013;-84
2023/10/22 07:04:20;;;;;;;16.65;12.45;;;11.60;99.90;;;;;;6186734;23;20021;-84
2023/10/22 07:06:46;;;;;;;10.55;9.50;;;11.60;99.90;;;;;;6186572;23;20044;-85
2023/10/22 07:09:12;;;;;;;16.05;10.20;;;11.60;99.90;;;;;;6210933;23;20325;-84
2023/10/22 07:11:38;;;;;;;12.35;11.10;;;12.50;99.90;;;;;;6211122;23;20074;-84
2023/10/22 07:14:04;;;;;;;15.75;10.48;;;12.60;99.90;;;;;;6190670;23;20012;-87
2023/10/22 07:16:31;;;;;;;15.95;10.48;;;11.60;99.90;;;;;;6195169;23;20044;-86
2023/10/22 07:18:57;;;;;;;18.25;11.45;;;11.50;99.90;;;;;;6192493;23;20019;-87
2023/10/22 07:21:23;;;;;;;18.60;11.63;;;12.10;99.90;;;;;;6194035;23;20016;-86
2023/10/22 07:23:48;;;;;;;16.23;10.50;;;11.90;99.90;;;;;;6190740;23;20118;-86
2023/10/22 07:26:14;;;;;;;15.80;12.48;;;11.50;99.90;;;;;;6193271;23;20104;-87
2023/10/22 07:28:44;;;;;;;14.07;11.35;;;11.60;99.90;;;;;;6194522;23;20096;-86
2023/10/22 07:31:11;;;;;;;17.45;11.93;;;11.60;99.90;;;;;;6195506;23;20017;-87
2023/10/22 07:33:37;;;;;;;15.35;11.60;;;12.60;99.90;;;;;;6193717;23;20024;-86
2023/10/22 07:36:07;;;;;;;15.60;13.90;;;11.50;99.90;;;;;;6193927;23;20016;-86
2023/10/22 07:38:33;;;;;;;15.88;11.23;;;11.60;99.90;;;;;;6193743;23;20025;-86
2023/10/22 07:41:00;;;;;;;14.32;12.75;;;12.00;99.90;;;;;;6193160;23;20327;-86
2023/10/22 07:43:27;;;;;;;14.05;11.82;;;12.50;99.90;;;;;;6195929;23;20019;-88
2023/10/22 07:45:53;;;;;;;18.77;13.75;;;12.00;99.90;;;;;;6195883;23;20017;-87
2023/10/22 07:48:19;;;;;;;15.35;13.93;;;11.60;99.90;;;;;;6222549;23;20012;-87
2023/10/22 07:50:45;;;;;;;17.52;14.77;;;12.20;99.90;;;;;;6196480;23;20063;-86
2023/10/22 07:53:10;;;;;;;16.42;14.80;;;11.60;99.90;;;;;;6222104;23;20013;-86
2023/10/22 07:55:38;;;;;;;15.40;13.90;;;12.10;99.90;;;;;;6195531;23;20075;-87
2023/10/22 07:58:03;;;;;;;15.52;13.35;;;12.00;99.90;;;;;;6194906;23;20016;-85
2023/10/22 08:00:29;;;;;;;14.65;13.20;;;11.60;99.90;;;;;;6194006;23;20458;-86
2023/10/22 08:02:56;;;;;;;16.33;13.50;;;12.40;99.90;;;;;;6218868;23;20465;-86
2023/10/22 08:05:23;;;;;;;19.98;14.10;;;11.80;99.90;;;;;;6193882;23;20012;-85
2023/10/22 08:07:48;;;;;;;12.82;11.57;;;11.80;99.90;;;;;;6193420;23;20017;-86
2023/10/22 08:10:15;;;;;;;15.77;10.40;;;11.90;99.90;;;;;;6192552;23;20490;-85
2023/10/22 08:12:41;;;;;;;13.45;9.52;;;12.10;99.90;;;;;;6189366;23;20017;-83
2023/10/22 08:15:07;;;;;;;18.13;14.35;;;12.60;99.90;;;;;;6189810;23;20017;-85
2023/10/22 08:17:33;;;;;;;16.80;12.93;;;12.10;99.90;;;;;;6196225;23;20044;-88
2023/10/22 08:19:58;;;;;;;19.77;14.50;;;12.50;99.90;;;;;;6220971;23;20040;-86
2023/10/22 08:22:24;;;;;;;17.75;15.57;;;12.30;99.90;;;;;;6195484;23;20012;-86
2023/10/22 08:24:50;;;;;;;15.90;14.35;;;12.30;99.90;;;;;;6194473;23;20044;-88
2023/10/22 08:27:15;;;;;;;16.92;14.65;;;12.40;99.90;;;;;;6197112;23;20521;-88
2023/10/22 08:29:41;;;;;;;17.63;14.52;;;13.20;99.90;;;;;;6197932;23;20433;-87
2023/10/22 08:32:07;;;;;;;16.65;13.00;;;13.20;99.90;;;;;;6216139;23;20085;-88
2023/10/22 08:34:33;;;;;;;12.77;10.15;;;13.00;99.90;;;;;;6196835;23;20080;-89
2023/10/22 08:36:59;;;;;;;14.32;7.97;;;13.40;99.90;;;;;;6191462;23;20091;-84
2023/10/22 08:39:28;;;;;;;13.02;10.10;;;12.70;99.90;;;;;;6213942;23;20533;-85
2023/10/22 08:42:16;;;;;;;21.17;9.27;;;12.70;99.90;;;;;;6196185;23;20017;-87
2023/10/22 08:44:48;;;;;;;8.95;6.20;;;12.90;99.90;;;;;;6197793;23;20096;-87
2023/10/22 08:47:15;;;;;;;10.88;6.90;;;12.80;99.90;;;;;;6201170;23;20016;-87
2023/10/22 08:49:41;;;;;;;16.08;9.18;;;12.80;99.90;;;;;;6229045;23;20017;-86
2023/10/22 08:52:08;;;;;;;11.60;8.45;;;12.80;99.90;;;;;;6197851;23;20023;-86
2023/10/22 08:54:34;;;;;;;9.88;8.07;;;12.80;99.90;;;;;;6221292;23;20110;-86
2023/10/22 08:57:01;;;;;;;12.02;7.50;;;13.50;99.90;;;;;;6220317;23;20099;-87
2023/10/22 08:59:29;;;;;;;9.98;8.40;;;12.70;99.90;;;;;;6196071;23;20008;-87
2023/10/22 09:01:56;;;;;;;14.95;9.63;;;13.40;99.90;;;;;;6196517;23;20013;-86
2023/10/22 09:04:22;;;;;;;11.15;10.00;;;13.40;99.90;;;;;;6193484;23;20020;-85
2023/10/22 09:06:53;;;;;;;8.70;7.88;;;13.20;99.90;;;;;;6192816;23;20068;-86
2023/10/22 09:09:29;;;;;;;11.63;9.80;;;13.50;99.90;;;;;;6218127;23;20016;-86
2023/10/22 09:11:56;;;;;;;11.48;10.38;;;13.00;99.90;;;;;;6193749;23;20016;-85
2023/10/22 09:14:23;;;;;;;14.15;12.80;;;12.90;99.90;;;;;;6194656;23;20028;-85
2023/10/22 09:16:49;;;;;;;15.48;10.85;;;13.10;99.90;;;;;;6192145;23;20013;-85
2023/10/22 09:19:33;;;;;;;12.57;11.43;;;13.40;99.90;;;;;;6190728;23;20052;-85
2023/10/22 09:21:59;;;;;;;11.48;10.32;;;13.10;99.90;;;;;;6191071;23;20020;-85
2023/10/22 09:24:25;;;;;;;11.98;10.88;;;13.80;99.90;;;;;;6191925;23;20017;-85
2023/10/22 09:26:50;;;;;;;10.00;8.43;;;13.20;99.90;;;;;;6192300;23;20589;-85
2023/10/22 09:29:16;;;;;;;11.48;7.97;;;13.40;99.90;;;;;;6192620;23;20016;-86
2023/10/22 09:31:51;;;;;;;9.20;7.55;;;13.70;99.90;;;;;;6189691;23;20055;-85
2023/10/22 09:34:33;;;;;;;13.68;12.00;;;13.60;99.90;;;;;;6217442;23;20017;-84
2023/10/22 09:36:59;;;;;;;18.33;16.88;;;13.40;99.90;;;;;;6211980;23;20031;-83
2023/10/22 09:39:38;;;;;;;14.90;13.40;;;13.40;99.90;;;;;;6212228;23;20016;-85
2023/10/22 09:42:05;;;;;;;20.05;18.35;;;13.30;99.90;;;;;;6216183;23;20016;-84
2023/10/22 09:44:35;;;;;;;12.15;10.48;;;13.30;99.90;;;;;;6192195;23;20092;-85
2023/10/22 09:47:02;;;;;;;12.82;11.80;;;13.20;99.90;;;;;;6192750;23;20017;-85
2023/10/22 09:49:32;;;;;;;17.40;16.25;;;13.20;99.90;;;;;;6192485;23;20200;-85
2023/10/22 09:52:00;;;;;;;13.43;11.50;;;13.30;99.90;;;;;;6216359;23;20024;-85
2023/10/22 09:54:35;;;;;;;12.43;11.38;;;13.30;99.90;;;;;;6193691;23;20023;-85
2023/10/22 09:57:10;;;;;;;18.15;16.95;;;13.30;99.90;;;;;;6192092;23;20013;-86
2023/10/22 09:59:36;;;;;;;14.63;13.45;;;13.60;99.90;;;;;;6195037;23;20017;-86
2023/10/22 10:02:04;;;;;;;13.55;12.45;;;13.30;99.90;;;;;;6189809;23;20522;-84
2023/10/22 10:04:35;;;;;;;16.58;15.18;;;13.20;99.90;;;;;;6189724;23;20024;-85
2023/10/22 10:07:04;;;;;;;17.40;16.05;;;13.20;99.90;;;;;;6189053;23;20070;-85
2023/10/22 10:09:31;;;;;;;14.25;13.23;;;13.10;99.90;;;;;;6191389;23;20012;-84
2023/10/22 10:12:01;;;;;;;18.20;16.65;;;13.30;99.90;;;;;;6215214;23;20052;-84
2023/10/22 10:14:36;;;;;;;11.68;10.57;;;13.50;99.90;;;;;;6193487;23;20072;-85
2023/10/22 10:17:02;;;;;;;15.75;14.55;;;13.50;99.90;;;;;;6194905;23;20012;-85
2023/10/22 10:19:28;;;;;;;9.80;8.75;;;13.60;99.90;;;;;;6194577;23;20012;-85
2023/10/22 10:21:54;;;;;;;14.77;13.35;;;13.70;99.90;;;;;;6219195;23;20009;-85
2023/10/22 10:24:30;;;;;;;16.05;14.95;;;13.70;99.90;;;;;;6217320;23;20013;-84
2023/10/22 10:26:56;;;;;;;22.23;20.48;;;13.70;99.90;;;;;;6219142;23;20451;-85
2023/10/22 10:29:23;;;;;;;11.48;10.63;;;13.90;99.90;;;;;;6194415;23;20091;-84
2023/10/22 10:31:53;;;;;;;11.88;10.93;;;13.90;99.90;;;;;;6217012;23;20079;-84
2023/10/22 10:34:36;;;;;;;11.40;10.27;;;13.90;99.90;;;;;;6192728;23;20015;-84
2023/10/22 10:37:09;;;;;;;;;;;14.10;99.90;;;;;;6193347;23;20074;-85
2023/10/22 10:39:53;;;;;;;15.32;14.32;;;13.80;99.90;;;;;;6195142;23;19943;-85
2023/10/22 10:42:31;;;;;;;22.58;21.02;;;13.70;99.90;;;;;;6220133;23;20016;-85
2023/10/22 10:45:02;;;;;;;18.42;17.10;;;13.60;99.90;;;;;;6196545;23;20016;-85
2023/10/22 10:47:36;;;;;;;20.17;18.65;;;13.40;99.90;;;;;;6220559;23;20017;-86
2023/10/22 10:50:13;;;;;;;19.30;18.05;;;13.30;99.90;;;;;;6220970;23;20074;-85
2023/10/22 10:52:41;;;;;;;26.42;24.92;;;13.20;99.90;;;;;;6196662;23;20027;-86
2023/10/22 10:55:19;;;;;;;21.42;20.15;;;12.50;99.90;;;;;;6199085;23;20016;-85
2023/10/22 10:57:50;;;;;;;22.48;21.02;;;13.20;99.90;;;;;;6197580;23;20054;-85
2023/10/22 11:00:21;;;;;;;23.13;21.67;;;13.00;99.90;;;;;;6222494;23;20084;-85
2023/10/22 11:02:48;;;;;;;20.00;18.52;;;13.10;99.90;;;;;;6195508;23;20020;-84
2023/10/22 11:05:15;;;;;;;12.40;11.50;;;13.10;99.90;;;;;;6221521;23;20009;-85
2023/10/22 11:07:43;;;;;;;21.15;19.60;;;13.20;99.90;;;;;;6222782;23;20023;-85
2023/10/22 11:10:16;;;;;;;23.55;22.13;;;13.30;99.90;;;;;;6222358;23;20009;-86
2023/10/22 11:12:45;;;;;;;26.85;25.23;;;13.70;99.90;;;;;;6222683;23;20051;-86
2023/10/22 11:15:12;;;;;;;26.15;24.55;;;13.50;99.90;;;;;;6198260;23;20087;-86
2023/10/22 11:17:41;;;;;;;17.42;16.35;;;13.70;99.90;;;;;;6222920;23;20478;-86
2023/10/22 11:20:07;;;;;;;17.17;15.95;;;13.60;99.90;;;;;;6196884;23;20013;-86
2023/10/22 11:22:35;;;;;;;19.23;17.92;;;13.50;99.90;;;;;;6197493;23;20496;-85
2023/10/22 11:25:05;;;;;;;23.10;21.42;;;13.80;99.90;;;;;;6197684;23;20019;-86
2023/10/22 11:27:32;;;;;;;25.08;23.33;;;13.50;99.90;;;;;;6198786;23;20083;-86
2023/10/22 11:30:00;;;;;;;24.40;22.95;;;13.50;99.90;;;;;;6198552;23;20079;-86
2023/10/22 11:32:26;;;;;;;11.98;10.98;;;13.40;99.90;;;;;;6197757;23;20027;-86
2023/10/22 11:34:56;;;;;;;20.42;19.05;;;13.30;99.90;;;;;;6197093;23;20023;-86
2023/10/22 11:37:41;;;;;;;18.02;16.65;;;13.30;99.90;;;;;;6194299;23;20040;-84
2023/10/22 11:40:25;;;;;;;19.40;18.10;;;13.20;99.90;;;;;;6191954;23;20032;-85
2023/10/22 11:42:51;;;;;;;23.58;22.08;;;13.00;99.90;;;;;;6219568;23;20462;-85
2023/10/22 11:45:17;;;;;;;20.77;19.38;;;13.00;99.90;;;;;;6219523;23;20048;-86
2023/10/22 11:47:43;;;;;;;24.52;22.98;;;12.90;99.90;;;;;;6194054;23;20363;-85
2023/10/22 11:50:09;;;;;;;26.85;25.20;;;13.00;99.90;;;;;;6219435;23;20096;-84
2023/10/22 11:52:35;;;;;;;20.65;19.35;;;12.90;99.90;;;;;;6212730;23;20076;-84
2023/10/22 11:55:01;;;;;;;13.70;12.70;;;13.20;99.90;;;;;;6188984;23;20288;-83
2023/10/22 11:57:27;;;;;;;20.85;19.45;;;12.90;99.90;;;;;;6213386;23;20170;-83
2023/10/22 11:59:52;;;;;;;24.25;22.55;;;13.00;99.90;;;;;;6213665;23;20553;-83
2023/10/22 12:02:18;;;;;;;23.55;22.00;;;13.10;99.90;;;;;;6212598;23;20040;-84
2023/10/22 12:04:44;;;;;;;23.55;22.02;;;12.90;99.90;;;;;;6212835;23;20090;-83
2023/10/22 12:07:09;;;;;;;23.60;21.95;;;12.90;99.90;;;;;;6212830;23;20059;-83
2023/10/22 12:09:35;;;;;;;23.30;21.23;;;12.80;99.90;;;;;;6213525;23;20099;-83
2023/10/22 12:12:05;;;;;;;23.20;21.85;;;12.80;99.90;;;;;;6213403;23;20020;-82
2023/10/22 12:14:30;;;;;;;23.42;22.00;;;12.80;99.90;;;;;;6212399;23;20016;-83
2023/10/22 12:16:56;;;;;;;29.20;27.30;;;13.30;99.90;;;;;;6213173;23;20040;-83
2023/10/22 12:19:21;;;;;;;26.58;25.05;;;13.30;99.90;;;;;;6211897;23;20504;-83
2023/10/22 12:21:47;;;;;;;14.43;13.40;;;13.20;99.90;;;;;;6219612;23;20097;-86
2023/10/22 12:24:13;;;;;;;25.80;24.10;;;12.70;99.90;;;;;;6198286;23;20016;-86
2023/10/22 12:26:39;;;;;;;23.30;22.00;;;12.90;99.90;;;;;;6197984;23;20011;-86
2023/10/22 12:29:05;;;;;;;23.15;21.77;;;13.10;99.90;;;;;;6200269;23;20016;-88